createdAt,value
2019-02-18T00:01:38.411Z,4.30
2019-02-18T00:04:09.642Z,5.87
2019-02-18T00:06:40.078Z,5.43
2019-02-18T00:09:10.202Z,6.53
2019-02-18T00:11:40.627Z,5.80
2019-02-18T00:14:10.969Z,7.03
2019-02-18T00:16:41.527Z,9.77
2019-02-18T00:19:11.754Z,5.70
2019-02-18T00:21:42.170Z,5.80
2019-02-18T00:24:12.321Z,5.20
2019-02-18T00:26:42.641Z,6.90
2019-02-18T00:29:12.867Z,7.10
2019-02-18T00:31:43.047Z,9.17
2019-02-18T00:34:13.363Z,10.57
2019-02-18T00:36:43.598Z,8.70
2019-02-18T00:39:13.782Z,6.13
2019-02-18T00:41:44.029Z,4.13
2019-02-18T00:44:14.214Z,5.50
2019-02-18T00:46:44.500Z,3.60
2019-02-18T00:49:14.643Z,4.90
2019-02-18T00:51:44.775Z,5.57
2019-02-18T00:54:14.921Z,5.20
2019-02-18T00:56:45.093Z,5.20
2019-02-18T00:59:15.343Z,7.30
2019-02-18T01:01:45.611Z,5.03
2019-02-18T01:04:15.783Z,4.67
2019-02-18T01:06:45.950Z,4.37
2019-02-18T01:09:16.166Z,6.30
2019-02-18T01:11:46.349Z,4.33
2019-02-18T01:14:16.570Z,3.97
2019-02-18T01:16:46.772Z,5.17
2019-02-18T01:19:18.022Z,7.15
2019-02-18T01:21:48.117Z,4.50
2019-02-18T01:24:18.351Z,6.00
2019-02-18T01:26:49.165Z,6.30
2019-02-18T01:29:19.494Z,3.90
2019-02-18T01:31:49.610Z,4.00
2019-02-18T01:34:19.931Z,5.50
2019-02-18T01:36:50.050Z,4.13
2019-02-18T01:39:20.346Z,6.70
2019-02-18T01:41:50.592Z,3.67
2019-02-18T01:44:20.762Z,5.40
2019-02-18T01:46:50.977Z,5.27
2019-02-18T01:49:21.355Z,5.17
2019-02-18T01:51:51.557Z,6.03
2019-02-18T01:54:21.717Z,4.93
2019-02-18T01:56:51.853Z,4.17
2019-02-18T01:59:22.214Z,3.93
2019-02-18T02:01:52.933Z,4.17
2019-02-18T02:04:23.258Z,7.10
2019-02-18T02:06:53.446Z,3.83
2019-02-18T02:09:23.641Z,4.67
2019-02-18T02:11:53.773Z,4.47
2019-02-18T02:14:24.003Z,4.20
2019-02-18T02:16:54.365Z,4.33
2019-02-18T02:19:24.512Z,4.37
2019-02-18T02:21:54.727Z,4.80
2019-02-18T02:24:24.876Z,4.40
2019-02-18T02:26:55.069Z,4.47
2019-02-18T02:29:25.190Z,4.40
2019-02-18T02:31:55.478Z,5.43
2019-02-18T02:34:25.904Z,4.37
2019-02-18T02:36:56.122Z,3.90
2019-02-18T02:39:26.270Z,4.20
2019-02-18T02:41:56.349Z,4.73
2019-02-18T02:44:26.576Z,4.07
2019-02-18T02:46:56.742Z,4.63
2019-02-18T02:49:26.886Z,4.97
2019-02-18T02:51:58.093Z,5.10
2019-02-18T02:54:28.283Z,5.60
2019-02-18T02:56:58.417Z,3.97
2019-02-18T02:59:28.904Z,4.23
2019-02-18T03:01:59.178Z,7.30
2019-02-18T03:04:29.801Z,4.30
2019-02-18T03:07:00.138Z,3.60
2019-02-18T03:09:30.512Z,5.43
2019-02-18T03:12:00.668Z,5.23
2019-02-18T03:14:31.366Z,4.30
2019-02-18T03:17:01.759Z,5.77
2019-02-18T03:19:31.920Z,12.73
2019-02-18T03:22:03.147Z,3.67
2019-02-18T03:24:33.578Z,4.33
2019-02-18T03:27:03.698Z,4.70
2019-02-18T03:30:06.155Z,5.05
2019-02-18T03:32:45.954Z,5.07
2019-02-18T03:35:16.219Z,4.27
2019-02-18T03:37:46.314Z,4.70
2019-02-18T03:40:16.489Z,4.20
2019-02-18T03:42:46.687Z,9.67
2019-02-18T03:45:17.101Z,4.63
2019-02-18T03:47:47.203Z,4.40
2019-02-18T03:50:17.486Z,4.53
2019-02-18T03:52:47.632Z,4.50
2019-02-18T03:55:17.925Z,4.37
2019-02-18T03:57:48.145Z,3.90
2019-02-18T04:00:19.797Z,4.60
2019-02-18T04:02:50.166Z,5.40
2019-02-18T04:05:20.534Z,4.83
2019-02-18T04:07:50.808Z,4.40
2019-02-18T04:10:22.012Z,4.15
2019-02-18T04:12:52.138Z,7.75
2019-02-18T04:15:26.095Z,3.83
2019-02-18T04:17:56.351Z,3.60
2019-02-18T04:20:27.053Z,6.10
2019-02-18T04:22:57.498Z,4.40
2019-02-18T04:25:27.985Z,4.63
2019-02-18T04:27:58.147Z,12.58
2019-02-18T04:30:28.561Z,4.42
2019-02-18T04:32:58.790Z,5.17
2019-02-18T04:35:28.923Z,4.50
2019-02-18T04:37:59.143Z,3.97
2019-02-18T04:40:29.421Z,3.67
2019-02-18T04:42:59.565Z,4.40
2019-02-18T04:45:29.844Z,4.40
2019-02-18T04:48:00.276Z,3.60
2019-02-18T04:50:30.769Z,5.33
2019-02-18T04:53:01.217Z,4.10
2019-02-18T04:55:31.414Z,8.20
2019-02-18T04:58:01.548Z,3.60
2019-02-18T05:00:31.858Z,5.73
2019-02-18T05:03:02.153Z,4.53
2019-02-18T05:05:34.354Z,4.83
2019-02-18T05:08:04.292Z,6.40
2019-02-18T05:10:36.347Z,4.90
2019-02-18T05:13:06.517Z,3.87
2019-02-18T05:15:36.753Z,3.93
2019-02-18T05:18:07.013Z,7.80
2019-02-18T05:20:37.296Z,5.53
2019-02-18T05:23:07.429Z,5.07
2019-02-18T05:25:37.573Z,4.10
2019-02-18T05:28:07.674Z,7.20
2019-02-18T05:30:39.215Z,4.70
2019-02-18T05:33:09.443Z,8.03
2019-02-18T05:35:39.691Z,4.60
2019-02-18T05:38:10.339Z,3.93
2019-02-18T05:44:30.731Z,6.50
2019-02-18T05:47:01.159Z,6.80
2019-02-18T05:49:31.301Z,4.57
2019-02-18T05:52:01.565Z,7.43
2019-02-18T05:54:31.780Z,6.37
2019-02-18T05:57:01.968Z,5.30
2019-02-18T05:59:32.215Z,9.60
2019-02-18T06:02:02.591Z,5.73
2019-02-18T06:04:32.894Z,3.90
2019-02-18T06:07:03.566Z,13.43
2019-02-18T06:09:34.023Z,4.70
2019-02-18T06:12:04.258Z,4.70
2019-02-18T06:14:34.458Z,9.00
2019-02-18T06:17:04.625Z,10.50
2019-02-18T06:19:35.070Z,5.13
2019-02-18T06:22:05.649Z,13.70
2019-02-18T06:24:36.055Z,6.40
2019-02-18T06:27:06.447Z,7.80
2019-02-18T06:29:36.604Z,11.33
2019-02-18T06:32:07.020Z,15.23
2019-02-18T06:34:37.491Z,15.93
2019-02-18T06:37:07.906Z,14.33
2019-02-18T06:39:41.665Z,19.60
2019-02-18T06:42:11.237Z,10.33
2019-02-18T06:44:53.392Z,10.77
2019-02-18T06:47:26.098Z,14.27
2019-02-18T06:49:56.238Z,10.40
2019-02-18T06:52:26.569Z,10.40
2019-02-18T06:54:56.820Z,10.98
2019-02-18T06:57:55.159Z,10.93
2019-02-18T07:00:40.499Z,9.65
2019-02-18T07:03:21.812Z,9.27
2019-02-18T07:05:56.965Z,17.63
2019-02-18T07:09:01.211Z,8.20
2019-02-18T07:11:50.869Z,6.67
2019-02-18T07:14:23.197Z,6.77
2019-02-18T07:16:53.654Z,6.90
2019-02-18T07:19:23.977Z,6.78
2019-02-18T07:21:54.132Z,6.70
2019-02-18T07:24:24.436Z,9.33
2019-02-18T07:26:54.971Z,10.40
2019-02-18T07:29:25.448Z,6.73
2019-02-18T07:31:55.888Z,5.77
2019-02-18T07:34:26.215Z,9.23
2019-02-18T07:36:56.540Z,6.20
2019-02-18T07:39:27.408Z,5.67
2019-02-18T07:41:57.550Z,8.57
2019-02-18T07:44:28.112Z,12.03
2019-02-18T07:46:58.595Z,5.33
2019-02-18T07:49:28.967Z,5.10
2019-02-18T07:51:59.154Z,9.13
2019-02-18T07:54:29.724Z,9.00
2019-02-18T07:57:00.258Z,6.33
2019-02-18T07:59:30.837Z,11.03
2019-02-18T08:02:01.236Z,7.17
2019-02-18T08:04:31.465Z,7.60
2019-02-18T08:07:02.065Z,8.07
2019-02-18T08:09:32.610Z,7.43
2019-02-18T08:12:02.808Z,7.90
2019-02-18T08:14:40.133Z,12.17
2019-02-18T08:17:10.289Z,7.43
2019-02-18T08:19:40.468Z,14.40
2019-02-18T08:22:10.760Z,14.70
2019-02-18T08:24:41.243Z,12.50
2019-02-18T08:27:11.583Z,12.00
2019-02-18T08:29:41.944Z,10.93
2019-02-18T08:32:12.294Z,10.73
2019-02-18T08:34:42.533Z,9.50
2019-02-18T08:37:12.800Z,19.67
2019-02-18T08:39:42.950Z,10.10
2019-02-18T08:42:13.075Z,8.70
2019-02-18T08:44:43.804Z,12.20
2019-02-18T08:47:14.214Z,7.53
2019-02-18T08:49:44.499Z,11.87
2019-02-18T08:52:14.778Z,10.60
2019-02-18T08:54:45.012Z,14.93
2019-02-18T08:57:15.150Z,8.33
2019-02-18T08:59:45.559Z,8.83
2019-02-18T09:02:15.809Z,8.30
2019-02-18T09:04:46.025Z,7.10
2019-02-18T09:07:16.628Z,9.77
2019-02-18T09:09:47.069Z,7.07
2019-02-18T09:12:17.454Z,7.80
2019-02-18T09:14:47.739Z,8.60
2019-02-18T09:17:18.011Z,6.70
2019-02-18T09:19:48.158Z,5.47
2019-02-18T09:22:35.835Z,6.47
2019-02-18T09:25:18.111Z,6.60
2019-02-18T09:27:50.302Z,7.87
2019-02-18T09:30:24.723Z,5.23
2019-02-18T09:32:55.799Z,5.17
2019-02-18T09:35:26.138Z,5.00
2019-02-18T09:37:56.396Z,5.00
2019-02-18T09:40:26.649Z,5.23
2019-02-18T09:42:56.751Z,8.00
2019-02-18T09:45:27.054Z,5.12
2019-02-18T09:47:57.264Z,11.45
2019-02-18T09:50:27.470Z,5.15
2019-02-18T09:52:57.646Z,8.80
2019-02-18T09:55:27.745Z,4.37
2019-02-18T09:57:58.037Z,5.85
2019-02-18T10:00:28.325Z,4.33
2019-02-18T10:02:58.515Z,3.70
2019-02-18T10:05:28.670Z,4.50
2019-02-18T10:07:58.900Z,4.40
2019-02-18T10:10:29.056Z,3.70
2019-02-18T10:12:59.777Z,7.03
2019-02-18T10:15:30.285Z,3.87
2019-02-18T10:18:00.668Z,3.92
2019-02-18T10:20:30.850Z,4.00
2019-02-18T10:23:01.028Z,4.45
2019-02-18T10:25:31.409Z,4.65
2019-02-18T10:28:02.205Z,8.33
2019-02-18T10:30:34.574Z,4.35
2019-02-18T10:33:05.103Z,3.83
2019-02-18T10:35:35.732Z,4.15
2019-02-18T10:38:06.095Z,4.83
2019-02-18T10:40:36.282Z,3.60
2019-02-18T10:43:06.474Z,3.98
2019-02-18T10:45:36.766Z,13.13
2019-02-18T10:48:06.981Z,5.40
2019-02-18T10:50:37.210Z,5.73
2019-02-18T10:53:07.413Z,3.87
2019-02-18T10:55:37.595Z,6.72
2019-02-18T10:58:08.830Z,3.98
2019-02-18T11:00:39.634Z,7.67
2019-02-18T11:03:09.888Z,3.50
2019-02-18T11:05:40.409Z,3.15
2019-02-18T11:08:10.961Z,3.37
2019-02-18T11:10:41.355Z,2.92
2019-02-18T11:13:11.569Z,3.00
2019-02-18T11:15:42.787Z,2.98
2019-02-18T11:18:13.195Z,3.17
2019-02-18T11:20:43.401Z,3.15
2019-02-18T11:23:13.536Z,3.45
2019-02-18T11:25:44.406Z,5.35
2019-02-18T11:28:14.680Z,4.37
2019-02-18T11:30:45.011Z,3.20
2019-02-18T11:33:15.271Z,3.05
2019-02-18T11:35:45.655Z,3.17
2019-02-18T11:38:16.961Z,3.62
2019-02-18T11:40:47.595Z,3.33
2019-02-18T11:43:17.904Z,3.33
2019-02-18T11:45:48.378Z,2.98
2019-02-18T11:48:18.650Z,3.27
2019-02-18T11:50:49.202Z,3.22
2019-02-18T11:53:19.535Z,3.37
2019-02-18T11:55:49.957Z,4.45
2019-02-18T11:58:20.259Z,2.70
2019-02-18T12:00:50.869Z,3.40
2019-02-18T12:03:21.359Z,3.30
2019-02-18T12:05:51.660Z,3.10
2019-02-18T12:08:21.850Z,2.65
2019-02-18T12:10:52.152Z,4.60
2019-02-18T12:13:22.330Z,2.98
2019-02-18T12:15:52.646Z,9.30
2019-02-18T12:18:22.915Z,3.42
2019-02-18T12:20:53.408Z,6.03
2019-02-18T12:23:23.829Z,3.87
2019-02-18T12:25:54.229Z,5.45
2019-02-18T12:28:24.611Z,4.37
2019-02-18T12:30:54.820Z,5.08
2019-02-18T12:33:24.991Z,5.20
2019-02-18T12:35:55.263Z,4.80
2019-02-18T12:38:25.980Z,5.13
2019-02-18T12:40:56.236Z,8.43
2019-02-18T12:50:34.741Z,8.30
2019-02-18T12:53:05.096Z,10.78
2019-02-18T12:55:35.890Z,9.68
2019-02-18T12:58:06.300Z,9.78
2019-02-18T13:00:38.023Z,8.38
2019-02-18T13:03:08.531Z,7.07
2019-02-18T13:05:38.851Z,6.95
2019-02-18T13:08:09.845Z,6.65
2019-02-18T13:10:40.414Z,6.80
2019-02-18T13:13:10.664Z,8.90
2019-02-18T13:15:41.300Z,6.80
2019-02-18T13:18:11.644Z,6.72
2019-02-18T13:20:42.216Z,7.08
2019-02-18T13:23:13.015Z,8.70
2019-02-18T13:25:47.489Z,8.38
2019-02-18T13:28:15.436Z,6.40
2019-02-18T13:30:45.859Z,6.58
2019-02-18T13:33:16.218Z,7.15
2019-02-18T13:35:48.748Z,7.67
2019-02-18T13:38:19.050Z,6.70
2019-02-18T13:40:49.504Z,14.60
2019-02-18T13:43:19.704Z,15.00
2019-02-18T13:45:50.055Z,19.67
2019-02-18T13:48:20.696Z,6.90
2019-02-18T13:50:51.309Z,17.23
2019-02-18T13:53:21.559Z,8.80
2019-02-18T13:55:51.745Z,22.75
2019-02-18T13:58:22.384Z,10.07
2019-02-18T14:00:53.058Z,10.27
2019-02-18T14:03:23.406Z,7.53
2019-02-18T14:05:54.154Z,15.93
2019-02-18T14:08:24.751Z,9.40
2019-02-18T14:10:55.371Z,9.50
2019-02-18T14:13:26.013Z,11.43
2019-02-18T14:15:56.740Z,12.97
2019-02-18T14:18:27.386Z,22.53
2019-02-18T14:20:58.379Z,15.75
2019-02-18T14:23:28.817Z,14.20
2019-02-18T14:25:59.446Z,8.97
2019-02-18T14:28:30.057Z,8.20
2019-02-18T14:31:01.305Z,13.40
2019-02-18T14:33:32.193Z,13.13
2019-02-18T14:36:02.669Z,9.40
2019-02-18T14:38:32.874Z,7.03
2019-02-18T14:41:03.209Z,6.87
2019-02-18T14:43:34.022Z,7.30
2019-02-18T14:46:04.508Z,6.70
2019-02-18T14:48:35.151Z,9.90
2019-02-18T14:51:05.695Z,6.97
2019-02-18T14:53:35.951Z,6.53
2019-02-18T14:56:07.441Z,20.73
2019-02-18T14:58:37.911Z,13.27
2019-02-18T15:01:09.201Z,8.33
2019-02-18T15:03:39.688Z,11.37
2019-02-18T15:06:10.000Z,10.30
2019-02-18T15:08:40.899Z,13.37
2019-02-18T15:11:12.083Z,10.70
2019-02-18T15:13:42.431Z,12.70
2019-02-18T15:16:12.663Z,12.43
2019-02-18T15:18:42.843Z,15.37
2019-02-18T15:21:13.242Z,30.17
2019-02-18T15:23:43.422Z,37.67
2019-02-18T15:26:13.772Z,21.53
2019-02-18T15:28:44.321Z,10.60
2019-02-18T15:31:14.685Z,9.07
2019-02-18T15:33:45.114Z,12.80
2019-02-18T15:36:15.372Z,8.57
2019-02-18T15:38:46.081Z,11.50
2019-02-18T15:41:16.587Z,10.70
2019-02-18T15:43:46.875Z,12.00
2019-02-18T15:46:17.712Z,14.87
2019-02-18T15:48:48.043Z,15.90
2019-02-18T15:51:19.169Z,15.63
2019-02-18T15:53:49.500Z,11.50
2019-02-18T15:56:21.189Z,47.00
2019-02-18T15:58:51.576Z,39.18
2019-02-18T16:01:22.244Z,16.33
2019-02-18T16:03:52.865Z,17.63
2019-02-18T16:06:23.580Z,8.63
2019-02-18T16:08:55.087Z,16.77
2019-02-18T16:11:25.501Z,39.53
2019-02-18T16:13:55.855Z,21.37
2019-02-18T16:16:26.282Z,10.47
2019-02-18T16:18:57.033Z,10.17
2019-02-18T16:21:27.400Z,16.87
2019-02-18T16:23:57.719Z,13.63
2019-02-18T16:26:29.032Z,27.40
2019-02-18T16:28:59.671Z,46.13
2019-02-18T16:31:30.559Z,35.73
2019-02-18T16:34:01.216Z,31.90
2019-02-18T16:36:31.475Z,22.50
2019-02-18T16:39:02.119Z,16.80
2019-02-18T16:41:36.201Z,15.17
2019-02-18T16:44:06.936Z,26.07
2019-02-18T16:46:37.223Z,11.57
2019-02-18T16:49:08.116Z,17.90
2019-02-18T16:51:38.497Z,13.07
2019-02-18T16:54:08.999Z,6.00
2019-02-18T16:56:39.611Z,13.20
2019-02-18T16:59:10.333Z,12.37
2019-02-18T17:01:41.255Z,8.30
2019-02-18T17:04:11.626Z,14.20
2019-02-18T17:06:42.330Z,8.23
2019-02-18T17:09:17.360Z,6.63
2019-02-18T17:11:47.859Z,10.47
2019-02-18T17:14:18.105Z,23.90
2019-02-18T17:16:48.329Z,8.15
2019-02-18T17:19:18.756Z,9.70
2019-02-18T17:21:49.331Z,12.40
2019-02-18T17:24:19.988Z,10.80
2019-02-18T17:26:50.283Z,17.25
2019-02-18T17:29:20.526Z,28.60
2019-02-18T17:31:51.282Z,10.20
2019-02-18T17:34:21.640Z,13.63
2019-02-18T17:36:52.117Z,12.53
2019-02-18T17:39:22.303Z,25.90
2019-02-18T17:41:53.728Z,15.23
2019-02-18T17:44:24.493Z,7.58
2019-02-18T17:46:54.775Z,14.17
2019-02-18T17:49:24.997Z,12.90
2019-02-18T17:51:56.111Z,12.13
2019-02-18T17:54:26.406Z,26.13
2019-02-18T17:56:57.024Z,10.27
2019-02-18T17:59:27.507Z,17.40
2019-02-18T18:01:58.929Z,11.80
2019-02-18T18:04:29.186Z,17.57
2019-02-18T18:06:59.411Z,8.93
2019-02-18T18:09:30.031Z,11.30
2019-02-18T18:12:00.190Z,9.80
2019-02-18T18:14:30.901Z,14.20
2019-02-18T18:17:01.278Z,19.60
2019-02-18T18:24:19.551Z,6.17
2019-02-18T18:26:49.836Z,12.17
2019-02-18T18:29:20.275Z,10.43
2019-02-18T18:31:50.663Z,14.87
2019-02-18T18:34:21.702Z,11.87
2019-02-18T18:36:52.327Z,8.40
2019-02-18T18:39:22.745Z,8.17
2019-02-18T18:41:53.019Z,7.20
2019-02-18T18:44:23.607Z,10.30
2019-02-18T18:46:54.464Z,12.93
2019-02-18T18:49:25.382Z,7.20
2019-02-18T18:51:55.696Z,6.00
2019-02-18T18:54:26.044Z,6.10
2019-02-18T18:56:56.362Z,9.20
2019-02-18T18:59:26.698Z,7.23
2019-02-18T19:01:57.599Z,7.70
2019-02-18T19:04:28.020Z,11.40
2019-02-18T19:06:58.378Z,9.10
2019-02-18T19:09:29.349Z,8.30
2019-02-18T19:11:59.919Z,8.20
2019-02-18T19:14:30.798Z,8.07
2019-02-18T19:17:01.790Z,12.17
2019-02-18T19:19:32.578Z,10.60
2019-02-18T19:22:03.211Z,11.47
2019-02-18T19:24:33.617Z,10.48
2019-02-18T19:27:04.431Z,22.70
2019-02-18T19:29:34.920Z,16.30
2019-02-18T19:32:05.675Z,11.53
2019-02-18T19:34:36.219Z,15.20
2019-02-18T19:37:06.471Z,14.63
2019-02-18T19:39:37.210Z,10.83
2019-02-18T19:42:07.660Z,8.23
2019-02-18T19:44:38.061Z,13.20
2019-02-18T19:47:08.866Z,6.05
2019-02-18T19:49:39.225Z,6.70
2019-02-18T19:52:10.094Z,11.47
2019-02-18T19:54:41.490Z,21.50
2019-02-18T19:57:13.534Z,8.70
2019-02-18T19:59:44.941Z,12.05
2019-02-18T20:02:15.290Z,16.57
2019-02-18T20:04:45.872Z,11.13
2019-02-18T20:07:16.497Z,12.93
2019-02-18T20:09:46.928Z,14.87
2019-02-18T20:12:17.352Z,14.27
2019-02-18T20:14:47.870Z,9.50
2019-02-18T20:17:18.205Z,10.60
2019-02-18T20:19:49.334Z,13.43
2019-02-18T20:22:19.656Z,18.70
2019-02-18T20:24:50.031Z,16.63
2019-02-18T20:27:20.990Z,15.70
2019-02-18T20:29:51.746Z,13.17
2019-02-18T20:32:22.562Z,14.77
2019-02-18T20:34:53.274Z,17.23
2019-02-18T20:37:23.930Z,25.93
2019-02-18T20:39:54.447Z,10.00
2019-02-18T20:42:25.159Z,13.63
2019-02-18T20:44:55.864Z,16.93
2019-02-18T20:47:26.441Z,14.07
2019-02-18T20:49:56.921Z,11.27
2019-02-18T20:52:27.537Z,13.78
2019-02-18T20:54:58.228Z,9.40
2019-02-18T20:57:28.958Z,10.83
2019-02-18T20:59:59.616Z,9.93
2019-02-18T21:02:30.186Z,11.70
2019-02-18T21:05:00.828Z,14.03
2019-02-18T21:07:32.883Z,10.43
2019-02-18T21:10:03.321Z,16.10
2019-02-18T21:12:34.560Z,11.77
2019-02-18T21:15:05.365Z,7.73
2019-02-18T21:17:36.245Z,10.17
2019-02-18T21:20:07.732Z,12.23
2019-02-18T21:22:38.196Z,11.27
2019-02-18T21:25:09.382Z,13.83
2019-02-18T21:27:39.937Z,11.60
2019-02-18T21:30:11.363Z,8.20
2019-02-18T21:32:41.735Z,9.90
2019-02-18T21:35:12.179Z,11.23
2019-02-18T21:37:42.936Z,7.90
2019-02-18T21:40:13.396Z,10.25
2019-02-18T21:42:44.241Z,6.73
2019-02-18T21:45:14.753Z,6.53
2019-02-18T21:47:45.151Z,11.83
2019-02-18T21:50:16.001Z,8.17
2019-02-18T21:52:46.393Z,9.13
2019-02-18T21:55:16.680Z,10.63
2019-02-18T21:57:47.227Z,7.53
2019-02-18T22:00:19.320Z,6.33
2019-02-18T22:02:49.828Z,9.30
2019-02-18T22:05:20.695Z,5.50
2019-02-18T22:07:51.430Z,14.30
2019-02-18T22:10:21.771Z,7.53
2019-02-18T22:12:52.764Z,5.90
2019-02-18T22:15:23.019Z,6.08
2019-02-18T22:17:53.206Z,5.90
2019-02-18T22:20:23.742Z,5.90
2019-02-18T22:22:54.211Z,5.43
2019-02-18T22:25:24.562Z,9.47
2019-02-18T22:27:54.759Z,8.10
2019-02-18T22:30:25.131Z,8.90
2019-02-18T22:32:55.411Z,11.27
2019-02-18T22:35:25.896Z,7.93
2019-02-18T22:37:56.461Z,7.60
2019-02-18T22:40:26.704Z,8.97
2019-02-18T22:42:56.901Z,8.20
2019-02-18T22:45:27.392Z,10.20
2019-02-18T22:47:58.312Z,7.13
2019-02-18T22:50:28.821Z,9.45
2019-02-18T22:52:59.317Z,5.47
2019-02-18T22:55:29.699Z,6.63
2019-02-18T22:58:01.440Z,16.13
2019-02-18T23:00:59.700Z,5.30
2019-02-18T23:03:30.375Z,8.63
2019-02-18T23:06:00.809Z,7.70
2019-02-18T23:08:31.011Z,6.53
2019-02-18T23:11:01.559Z,9.00
2019-02-18T23:13:31.814Z,10.47
2019-02-18T23:16:02.184Z,7.73
2019-02-18T23:18:32.610Z,7.17
2019-02-18T23:21:02.940Z,8.33
2019-02-18T23:23:33.244Z,6.80
2019-02-18T23:26:03.714Z,7.63
2019-02-18T23:28:33.893Z,6.50
2019-02-18T23:31:04.286Z,7.40
2019-02-18T23:33:34.395Z,6.23
2019-02-18T23:36:05.006Z,9.40
2019-02-18T23:38:35.291Z,14.43
2019-02-18T23:41:05.789Z,5.95
2019-02-18T23:43:35.942Z,6.53
2019-02-18T23:46:06.117Z,8.57
2019-02-18T23:48:36.366Z,7.10
2019-02-18T23:51:06.656Z,6.23
2019-02-18T23:53:36.807Z,7.90
2019-02-18T23:56:07.058Z,7.90
2019-02-18T23:58:37.266Z,7.97
